createdAt,value
2022-11-01T00:00:08.747Z,15.30
2022-11-01T00:02:49.985Z,15.20
2022-11-01T00:05:18.635Z,15.30
2022-11-01T00:07:47.150Z,15.20
2022-11-01T00:12:45.956Z,15.30
2022-11-01T00:15:14.497Z,15.40
2022-11-01T00:17:42.765Z,15.40
2022-11-01T00:20:12.453Z,15.50
2022-11-01T00:22:40.919Z,15.60
2022-11-01T00:25:10.175Z,15.50
2022-11-01T00:27:38.526Z,15.60
2022-11-01T00:30:09.176Z,15.60
2022-11-01T00:32:37.720Z,15.50
2022-11-01T00:35:07.595Z,15.60
2022-11-01T00:37:36.174Z,15.50
2022-11-01T00:40:07.906Z,15.50
2022-11-01T00:42:45.136Z,15.50
2022-11-01T00:45:16.509Z,15.60
2022-11-01T00:47:45.211Z,15.60
2022-11-01T00:50:13.818Z,15.60
2022-11-01T00:52:42.386Z,15.50
2022-11-01T00:55:14.008Z,15.50
2022-11-01T00:57:43.285Z,15.20
2022-11-01T01:00:16.288Z,15.20
2022-11-01T01:02:46.391Z,15.20
2022-11-01T01:05:15.005Z,15.20
2022-11-01T01:07:43.382Z,15.20
2022-11-01T01:10:11.820Z,15.20
2022-11-01T01:12:40.227Z,15.30
2022-11-01T01:15:10.134Z,15.30
2022-11-01T01:17:38.756Z,15.20
2022-11-01T01:20:09.918Z,15.10
2022-11-01T01:22:38.395Z,15.30
2022-11-01T01:25:07.515Z,15.40
2022-11-01T01:27:36.069Z,15.30
2022-11-01T01:30:05.517Z,15.20
2022-11-01T01:32:35.428Z,15.30
2022-11-01T01:35:34.841Z,15.20
2022-11-01T01:38:05.592Z,15.20
2022-11-01T01:40:34.979Z,15.30
2022-11-01T01:43:03.556Z,15.40
2022-11-01T01:45:36.816Z,15.50
2022-11-01T01:48:11.053Z,15.40
2022-11-01T01:50:46.711Z,15.30
2022-11-01T01:53:19.524Z,15.30
2022-11-01T01:55:53.851Z,15.20
2022-11-01T01:58:25.383Z,15.30
2022-11-01T02:00:55.137Z,15.40
2022-11-01T02:03:26.712Z,15.40
2022-11-01T02:06:04.197Z,15.20
2022-11-01T02:08:33.786Z,15.50
2022-11-01T02:11:09.749Z,15.40
2022-11-01T02:14:09.684Z,15.50
2022-11-01T02:16:52.673Z,15.60
2022-11-01T02:20:00.839Z,15.50
2022-11-01T02:22:45.973Z,15.60
2022-11-01T02:25:46.091Z,15.60
2022-11-01T02:28:44.531Z,15.40
2022-11-01T02:31:32.872Z,15.40
2022-11-01T02:34:15.367Z,15.50
2022-11-01T02:39:37.332Z,15.70
2022-11-01T02:42:12.009Z,15.70
2022-11-01T02:44:44.198Z,15.40
2022-11-01T02:47:14.175Z,15.30
2022-11-01T02:49:47.031Z,15.40
2022-11-01T02:52:20.256Z,15.60
2022-11-01T02:54:53.499Z,15.40
2022-11-01T02:57:35.396Z,15.50
2022-11-01T03:00:22.553Z,15.60
2022-11-01T03:03:02.030Z,15.60
2022-11-01T03:06:10.486Z,15.60
2022-11-01T03:09:12.901Z,15.60
2022-11-01T03:12:00.605Z,15.70
2022-11-01T03:15:21.097Z,15.70
2022-11-01T03:17:55.238Z,15.80
2022-11-01T03:20:50.217Z,16.00
2022-11-01T03:23:44.133Z,15.80
2022-11-01T03:26:38.159Z,15.80
2022-11-01T03:29:15.570Z,15.70
2022-11-01T03:38:16.102Z,15.70
2022-11-01T03:41:15.855Z,15.80
2022-11-01T03:43:43.972Z,15.70
2022-11-01T03:46:12.356Z,15.60
2022-11-01T03:48:40.818Z,15.50
2022-11-01T03:51:09.288Z,15.60
2022-11-01T03:53:37.414Z,15.50
2022-11-01T03:56:06.211Z,15.50
2022-11-01T03:58:46.082Z,15.40
2022-11-01T04:01:16.459Z,15.40
2022-11-01T04:03:45.322Z,15.60
2022-11-01T04:06:13.535Z,15.50
2022-11-01T04:08:42.022Z,15.40
2022-11-01T04:11:10.143Z,15.50
2022-11-01T04:13:40.378Z,15.60
2022-11-01T04:16:27.861Z,15.50
2022-11-01T04:19:13.441Z,15.60
2022-11-01T04:21:42.544Z,15.30
2022-11-01T04:24:11.391Z,15.20
2022-11-01T04:26:40.001Z,15.10
2022-11-01T04:29:09.798Z,15.00
2022-11-01T04:31:38.406Z,15.00
2022-11-01T04:34:06.934Z,14.90
2022-11-01T04:36:35.413Z,14.90
2022-11-01T04:39:03.729Z,15.10
2022-11-01T04:41:31.827Z,15.00
2022-11-01T04:44:00.597Z,15.00
2022-11-01T04:46:32.704Z,15.00
2022-11-01T04:49:00.843Z,15.00
2022-11-01T04:51:29.041Z,15.10
2022-11-01T04:53:57.187Z,15.30
2022-11-01T04:56:25.368Z,15.30
2022-11-01T04:58:53.513Z,15.30
2022-11-01T05:01:22.270Z,15.40
2022-11-01T05:03:51.877Z,15.50
2022-11-01T05:06:20.066Z,15.60
2022-11-01T05:08:49.020Z,15.40
2022-11-01T05:11:17.259Z,15.40
2022-11-01T05:13:45.375Z,15.40
2022-11-01T05:16:19.535Z,15.50
2022-11-01T05:18:48.957Z,15.40
2022-11-01T05:21:19.935Z,15.40
2022-11-01T05:23:50.689Z,15.50
2022-11-01T05:26:18.997Z,15.50
2022-11-01T05:28:48.083Z,15.60
2022-11-01T05:31:16.354Z,15.60
2022-11-01T05:33:44.652Z,15.70
2022-11-01T05:36:13.078Z,15.70
2022-11-01T05:38:42.979Z,15.60
2022-11-01T05:41:11.112Z,15.70
2022-11-01T05:43:39.508Z,15.80
2022-11-01T05:46:09.135Z,15.70
2022-11-01T05:48:37.366Z,15.50
2022-11-01T05:51:05.632Z,15.50
2022-11-01T05:53:34.106Z,15.50
2022-11-01T05:56:04.182Z,15.60
2022-11-01T05:58:32.348Z,15.60
2022-11-01T06:01:01.189Z,15.60
2022-11-01T06:03:29.939Z,15.70
2022-11-01T06:05:58.922Z,15.70
2022-11-01T06:08:27.977Z,15.80
2022-11-01T06:11:04.097Z,15.90
2022-11-01T06:13:33.146Z,15.90
2022-11-01T06:16:01.618Z,16.00
2022-11-01T06:18:30.232Z,16.00
2022-11-01T06:20:59.351Z,16.10
2022-11-01T06:23:27.611Z,16.10
2022-11-01T06:26:02.984Z,16.10
2022-11-01T06:28:31.674Z,16.30
2022-11-01T06:31:02.617Z,16.30
2022-11-01T06:33:31.328Z,16.30
2022-11-01T06:35:59.917Z,16.20
2022-11-01T06:38:28.386Z,16.30
2022-11-01T06:40:59.478Z,16.30
2022-11-01T06:43:29.205Z,16.20
2022-11-01T06:46:00.897Z,16.30
2022-11-01T06:48:29.496Z,16.20
2022-11-01T06:50:57.840Z,16.30
2022-11-01T06:53:26.619Z,16.30
2022-11-01T06:55:54.891Z,16.30
2022-11-01T06:58:25.924Z,16.30
2022-11-01T07:00:55.681Z,16.40
2022-11-01T07:03:23.947Z,16.30
2022-11-01T07:05:53.056Z,16.20
2022-11-01T07:08:21.154Z,16.30
2022-11-01T07:10:54.287Z,16.30
2022-11-01T07:13:22.373Z,16.40
2022-11-01T07:15:50.476Z,16.50
2022-11-01T07:18:20.329Z,16.50
2022-11-01T07:20:48.767Z,16.50
2022-11-01T07:23:18.610Z,16.60
2022-11-01T07:26:05.689Z,16.60
2022-11-01T07:28:35.384Z,16.70
2022-11-01T07:31:04.738Z,16.80
2022-11-01T07:33:34.272Z,16.80
2022-11-01T07:36:04.006Z,16.90
2022-11-01T07:38:34.118Z,16.90
2022-11-01T07:41:04.612Z,17.00
2022-11-01T07:43:32.732Z,16.90
2022-11-01T07:46:04.041Z,16.80
2022-11-01T07:48:32.264Z,16.70
2022-11-01T07:51:07.746Z,16.60
2022-11-01T07:53:37.463Z,16.70
2022-11-01T07:56:13.911Z,16.70
2022-11-01T07:58:43.963Z,16.60
2022-11-01T08:01:12.337Z,16.60
2022-11-01T08:03:40.808Z,16.70
2022-11-01T08:06:10.637Z,16.70
2022-11-01T08:08:39.167Z,16.80
2022-11-01T08:11:10.166Z,16.90
2022-11-01T08:13:38.708Z,16.70
2022-11-01T08:16:10.737Z,16.60
2022-11-01T08:18:45.007Z,16.60
2022-11-01T08:21:18.892Z,16.70
2022-11-01T08:23:51.579Z,16.70
2022-11-01T08:26:20.669Z,16.70
2022-11-01T08:28:49.034Z,16.60
2022-11-01T08:31:20.194Z,16.70
2022-11-01T08:33:51.329Z,16.70
2022-11-01T08:36:22.102Z,16.70
2022-11-01T08:38:50.687Z,16.70
2022-11-01T08:41:19.324Z,16.80
2022-11-01T08:43:47.894Z,16.80
2022-11-01T08:46:16.972Z,16.80
2022-11-01T08:48:53.535Z,16.80
2022-11-01T08:51:26.195Z,16.80
2022-11-01T08:53:56.815Z,16.90
2022-11-01T08:56:27.618Z,17.00
2022-11-01T08:59:03.383Z,17.00
2022-11-01T09:01:34.455Z,17.00
2022-11-01T09:04:03.607Z,17.00
2022-11-01T09:06:36.392Z,17.00
2022-11-01T09:09:05.624Z,17.00
2022-11-01T09:11:34.147Z,17.20
2022-11-01T09:14:04.388Z,17.00
2022-11-01T09:16:37.700Z,17.10
2022-11-01T09:19:09.224Z,17.10
2022-11-01T09:21:44.007Z,17.20
2022-11-01T09:24:12.676Z,17.20
2022-11-01T09:26:44.404Z,17.20
2022-11-01T09:29:14.289Z,17.30
2022-11-01T09:31:42.936Z,17.30
2022-11-01T09:34:18.687Z,17.40
2022-11-01T09:36:51.229Z,17.50
2022-11-01T09:39:22.783Z,17.70
2022-11-01T09:41:55.945Z,17.70
2022-11-01T09:44:29.279Z,17.70
2022-11-01T09:47:04.461Z,17.90
2022-11-01T09:49:36.759Z,17.90
2022-11-01T09:52:11.077Z,17.80
2022-11-01T09:54:46.736Z,17.90
2022-11-01T09:57:45.150Z,17.90
2022-11-01T10:00:23.295Z,17.70
2022-11-01T10:03:35.544Z,17.30
2022-11-01T10:06:11.818Z,17.00
2022-11-01T10:09:15.011Z,16.90
2022-11-01T10:12:06.751Z,16.80
2022-11-01T10:14:52.881Z,16.90
2022-11-01T10:17:27.267Z,16.90
2022-11-01T10:19:55.786Z,17.10
2022-11-01T10:22:33.232Z,17.20
2022-11-01T10:25:19.561Z,17.20
2022-11-01T10:27:55.091Z,17.20
2022-11-01T10:30:24.445Z,17.20
2022-11-01T10:32:58.132Z,17.30
2022-11-01T10:35:30.566Z,17.40
2022-11-01T10:38:18.868Z,17.30
2022-11-01T10:40:57.693Z,17.10
2022-11-01T10:43:27.307Z,17.20
2022-11-01T10:45:58.818Z,17.10
2022-11-01T10:48:33.025Z,17.30
2022-11-01T10:51:05.881Z,17.30
2022-11-01T10:53:37.899Z,17.40
2022-11-01T10:56:11.951Z,17.50
2022-11-01T10:58:45.788Z,17.40
2022-11-01T11:01:17.793Z,17.40
2022-11-01T11:03:47.630Z,17.40
2022-11-01T11:06:20.449Z,17.30
2022-11-01T11:08:52.867Z,17.10
2022-11-01T11:11:32.291Z,17.10
2022-11-01T11:14:04.210Z,17.20
2022-11-01T11:16:48.151Z,17.30
2022-11-01T11:19:23.340Z,17.50
2022-11-01T11:22:02.405Z,17.60
2022-11-01T11:24:35.590Z,17.50
2022-11-01T11:27:13.275Z,17.60
2022-11-01T11:29:48.846Z,17.40
2022-11-01T11:32:19.701Z,17.40
2022-11-01T11:34:56.686Z,17.40
2022-11-01T11:39:54.267Z,17.10
2022-11-01T11:41:57.726Z,17.10
2022-11-01T11:45:34.771Z,17.30
2022-11-01T11:48:28.435Z,17.50
2022-11-01T11:51:29.970Z,17.50
2022-11-01T12:11:38.366Z,18.00
2022-11-01T12:18:38.635Z,17.90
2022-11-01T12:32:08.715Z,17.60
2022-11-01T12:34:45.805Z,17.80
2022-11-01T12:37:21.148Z,18.00
2022-11-01T12:39:57.159Z,17.90
2022-11-01T12:42:30.826Z,18.00
2022-11-01T12:45:06.396Z,17.90
2022-11-01T12:47:41.937Z,17.90
2022-11-01T12:57:14.998Z,17.70
2022-11-01T13:00:07.281Z,17.50
2022-11-01T13:03:27.374Z,17.30
2022-11-01T13:16:21.616Z,17.50
2022-11-01T13:19:36.042Z,17.30
2022-11-01T13:23:15.946Z,17.40
2022-11-01T15:07:17.366Z,18.40
2022-11-01T15:24:29.604Z,18.10
2022-11-01T15:27:47.083Z,18.20
2022-11-01T15:30:39.778Z,18.20
2022-11-01T15:33:27.049Z,18.20
2022-11-01T15:35:58.258Z,18.00
2022-11-01T15:38:40.773Z,18.10
2022-11-01T15:42:00.890Z,18.00
2022-11-01T15:49:00.903Z,18.20
2022-11-01T16:21:59.934Z,17.30
2022-11-01T16:25:18.783Z,17.00
2022-11-01T16:35:23.483Z,16.70
2022-11-01T16:38:27.394Z,16.70
2022-11-01T16:41:24.151Z,16.70
2022-11-01T16:44:03.006Z,16.70
2022-11-01T16:47:32.689Z,16.70
2022-11-01T16:50:46.819Z,16.60
2022-11-01T16:53:39.338Z,16.40
2022-11-01T16:57:05.651Z,16.30
2022-11-01T17:01:05.704Z,16.20
2022-11-01T17:18:28.040Z,15.50
2022-11-01T17:20:31.983Z,15.40
2022-11-01T17:23:29.214Z,15.40
2022-11-01T17:26:08.379Z,15.20
2022-11-01T17:28:39.043Z,15.20
2022-11-01T17:31:07.560Z,15.10
2022-11-01T17:33:36.022Z,14.90
2022-11-01T17:43:32.650Z,14.70
2022-11-01T17:46:32.359Z,14.70
2022-11-01T17:56:19.575Z,14.40
2022-11-01T17:58:52.216Z,14.40
2022-11-01T18:01:21.721Z,14.30
2022-11-01T18:04:06.621Z,14.40
2022-11-01T18:06:40.022Z,14.60
2022-11-01T18:09:18.646Z,14.60
2022-11-01T18:11:55.214Z,14.70
2022-11-01T18:14:55.719Z,14.60
2022-11-01T18:17:59.841Z,14.50
2022-11-01T18:21:10.484Z,14.40
2022-11-01T18:24:22.212Z,14.40
2022-11-01T18:26:56.704Z,14.10
2022-11-01T18:29:33.355Z,14.00
2022-11-01T18:32:10.873Z,13.70
2022-11-01T18:34:45.550Z,13.70
2022-11-01T18:37:25.408Z,13.80
2022-11-01T18:41:13.352Z,13.90
2022-11-01T18:43:57.358Z,13.70
2022-11-01T18:46:54.637Z,13.90
2022-11-01T18:49:30.115Z,13.80
2022-11-01T18:52:24.078Z,13.80
2022-11-01T18:54:56.876Z,13.90
2022-11-01T18:57:35.058Z,13.80
2022-11-01T19:00:12.614Z,13.60
2022-11-01T19:02:45.719Z,13.60
2022-11-01T19:05:17.420Z,13.70
2022-11-01T19:10:42.641Z,13.70
2022-11-01T19:16:30.818Z,13.30
2022-11-01T19:20:21.075Z,13.40
2022-11-01T19:24:02.845Z,13.70
2022-11-01T19:26:42.172Z,13.90
2022-11-01T19:29:52.834Z,13.90
2022-11-01T19:33:02.076Z,14.00
2022-11-01T19:35:55.727Z,13.80
2022-11-01T19:38:25.597Z,13.60
2022-11-01T19:40:55.354Z,13.70
2022-11-01T19:43:26.722Z,13.70
2022-11-01T19:45:57.602Z,13.60
2022-11-01T19:48:37.258Z,13.80
2022-11-01T19:51:46.753Z,13.80
2022-11-01T19:55:48.237Z,13.80
2022-11-01T19:58:42.262Z,13.80
2022-11-01T20:01:38.978Z,13.90
2022-11-01T20:04:17.835Z,14.00
2022-11-01T20:06:50.915Z,13.80
2022-11-01T20:09:31.783Z,13.50
2022-11-01T20:12:08.597Z,13.20
2022-11-01T20:15:11.392Z,12.90
2022-11-01T20:18:06.289Z,12.90
2022-11-01T20:20:38.206Z,13.10
2022-11-01T20:23:25.346Z,13.20
2022-11-01T20:25:59.459Z,13.30
2022-11-01T20:28:43.695Z,13.30
2022-11-01T20:31:14.896Z,13.30
2022-11-01T20:33:46.515Z,13.30
2022-11-01T20:36:15.468Z,13.20
2022-11-01T20:38:50.013Z,13.20
2022-11-01T20:41:58.549Z,13.10
2022-11-01T20:47:48.125Z,13.00
2022-11-01T20:50:18.120Z,13.00
2022-11-01T20:53:06.755Z,13.10
2022-11-01T20:55:36.551Z,13.10
2022-11-01T20:58:30.598Z,13.10
2022-11-01T21:04:24.766Z,13.20
2022-11-01T21:06:59.750Z,13.20
2022-11-01T21:10:54.882Z,13.20
2022-11-01T21:13:49.498Z,13.00
2022-11-01T21:16:26.185Z,12.70
2022-11-01T21:19:02.279Z,12.90
2022-11-01T21:21:34.070Z,13.00
2022-11-01T21:24:26.852Z,12.80
2022-11-01T21:30:17.890Z,12.90
2022-11-01T21:32:47.330Z,13.10
2022-11-01T21:35:41.094Z,13.00
2022-11-01T21:38:34.421Z,13.20
2022-11-01T21:41:17.179Z,13.10
2022-11-01T21:43:46.057Z,13.30
2022-11-01T21:46:17.837Z,13.30
2022-11-01T21:49:27.056Z,13.20
2022-11-01T21:52:31.924Z,13.30
2022-11-01T21:59:22.077Z,12.80
2022-11-01T22:02:49.967Z,12.70
2022-11-01T22:06:36.469Z,12.40
2022-11-01T22:09:34.378Z,12.30
2022-11-01T22:12:17.569Z,12.20
2022-11-01T22:14:57.538Z,12.20
2022-11-01T22:17:50.946Z,12.00
2022-11-01T22:20:19.733Z,12.00
2022-11-01T22:22:48.118Z,11.70
2022-11-01T22:25:18.018Z,11.50
2022-11-01T22:27:46.511Z,11.50
2022-11-01T22:30:15.146Z,11.40
2022-11-01T22:32:43.733Z,11.50
2022-11-01T22:35:12.058Z,11.50
2022-11-01T22:37:40.896Z,11.70
2022-11-01T22:40:14.990Z,11.90
2022-11-01T22:42:44.569Z,11.90
2022-11-01T22:45:18.127Z,11.70
2022-11-01T22:47:49.890Z,11.50
2022-11-01T22:50:25.499Z,11.50
2022-11-01T22:52:53.846Z,11.50
2022-11-01T22:55:26.007Z,11.40
2022-11-01T22:57:59.269Z,11.50
2022-11-01T23:00:31.547Z,11.40
2022-11-01T23:03:12.137Z,11.40
2022-11-01T23:05:40.399Z,11.50
2022-11-01T23:08:20.750Z,11.40
2022-11-01T23:10:52.052Z,11.60
2022-11-01T23:13:42.973Z,11.60
2022-11-01T23:16:23.298Z,11.60
2022-11-01T23:18:52.757Z,11.70
2022-11-01T23:21:22.523Z,11.50
2022-11-01T23:23:51.276Z,11.30
2022-11-01T23:26:21.293Z,11.20
2022-11-01T23:28:53.470Z,11.40
2022-11-01T23:31:22.873Z,11.50
2022-11-01T23:33:52.233Z,11.40
2022-11-01T23:36:23.784Z,11.40
2022-11-01T23:38:55.214Z,11.60
2022-11-01T23:41:25.795Z,11.50
2022-11-01T23:43:58.495Z,11.40
2022-11-01T23:46:28.032Z,11.30
2022-11-01T23:49:02.465Z,11.00
2022-11-01T23:51:32.357Z,11.00
2022-11-01T23:54:01.390Z,11.10
2022-11-01T23:56:30.374Z,11.20
2022-11-01T23:59:04.368Z,11.30
